sensor_id;sensor_type;location;lat;lon;timestamp;P1;durP1;ratioP1;P2;durP2;ratioP2
6193;SDS011;3130;41.564;23.280;2022-07-12T00:02:11;4.23;;;3.13;;
6193;SDS011;3130;41.564;23.280;2022-07-12T00:04:38;5.83;;;3.00;;
6193;SDS011;3130;41.564;23.280;2022-07-12T00:07:06;3.43;;;3.13;;
6193;SDS011;3130;41.564;23.280;2022-07-12T00:09:33;4.03;;;2.90;;
6193;SDS011;3130;41.564;23.280;2022-07-12T00:12:01;3.50;;;3.00;;
6193;SDS011;3130;41.564;23.280;2022-07-12T00:14:28;4.90;;;3.13;;
6193;SDS011;3130;41.564;23.280;2022-07-12T00:16:55;3.93;;;3.03;;
6193;SDS011;3130;41.564;23.280;2022-07-12T00:19:22;4.67;;;3.30;;
6193;SDS011;3130;41.564;23.280;2022-07-12T00:21:49;4.10;;;2.67;;
6193;SDS011;3130;41.564;23.280;2022-07-12T00:24:18;3.23;;;2.77;;
6193;SDS011;3130;41.564;23.280;2022-07-12T00:26:45;4.67;;;3.27;;
6193;SDS011;3130;41.564;23.280;2022-07-12T00:29:12;3.90;;;3.57;;
6193;SDS011;3130;41.564;23.280;2022-07-12T00:31:40;5.17;;;2.93;;
6193;SDS011;3130;41.564;23.280;2022-07-12T00:34:07;4.37;;;3.50;;
6193;SDS011;3130;41.564;23.280;2022-07-12T00:36:34;3.43;;;2.90;;
6193;SDS011;3130;41.564;23.280;2022-07-12T00:39:01;3.57;;;3.27;;
6193;SDS011;3130;41.564;23.280;2022-07-12T00:41:30;4.53;;;3.37;;
6193;SDS011;3130;41.564;23.280;2022-07-12T00:43:57;3.63;;;3.00;;
6193;SDS011;3130;41.564;23.280;2022-07-12T00:46:25;4.07;;;3.33;;
6193;SDS011;3130;41.564;23.280;2022-07-12T00:48:52;3.37;;;3.07;;
6193;SDS011;3130;41.564;23.280;2022-07-12T00:51:20;3.70;;;3.13;;
6193;SDS011;3130;41.564;23.280;2022-07-12T00:53:47;5.07;;;3.10;;
6193;SDS011;3130;41.564;23.280;2022-07-12T00:56:17;3.40;;;3.10;;
6193;SDS011;3130;41.564;23.280;2022-07-12T00:58:45;5.20;;;3.77;;
6193;SDS011;3130;41.564;23.280;2022-07-12T01:01:12;4.73;;;3.03;;
6193;SDS011;3130;41.564;23.280;2022-07-12T01:03:40;3.70;;;3.37;;
6193;SDS011;3130;41.564;23.280;2022-07-12T01:06:08;5.17;;;3.17;;
6193;SDS011;3130;41.564;23.280;2022-07-12T01:08:36;5.13;;;3.23;;
6193;SDS011;3130;41.564;23.280;2022-07-12T01:11:04;4.77;;;3.40;;
6193;SDS011;3130;41.564;23.280;2022-07-12T01:13:31;2.93;;;2.70;;
6193;SDS011;3130;41.564;23.280;2022-07-12T01:16:00;3.67;;;2.47;;
6193;SDS011;3130;41.564;23.280;2022-07-12T01:18:28;4.13;;;3.30;;
6193;SDS011;3130;41.564;23.280;2022-07-12T01:20:55;7.33;;;2.87;;
6193;SDS011;3130;41.564;23.280;2022-07-12T01:23:24;4.27;;;3.70;;
6193;SDS011;3130;41.564;23.280;2022-07-12T01:25:51;5.63;;;3.43;;
6193;SDS011;3130;41.564;23.280;2022-07-12T01:28:18;3.33;;;2.90;;
6193;SDS011;3130;41.564;23.280;2022-07-12T01:30:47;5.90;;;3.10;;
6193;SDS011;3130;41.564;23.280;2022-07-12T01:33:14;4.33;;;3.40;;
6193;SDS011;3130;41.564;23.280;2022-07-12T01:35:42;4.63;;;3.40;;
6193;SDS011;3130;41.564;23.280;2022-07-12T01:38:12;3.10;;;2.77;;
6193;SDS011;3130;41.564;23.280;2022-07-12T01:40:41;3.47;;;3.17;;
6193;SDS011;3130;41.564;23.280;2022-07-12T01:43:08;3.40;;;3.10;;
6193;SDS011;3130;41.564;23.280;2022-07-12T01:45:35;4.87;;;3.37;;
6193;SDS011;3130;41.564;23.280;2022-07-12T01:48:02;4.93;;;3.40;;
6193;SDS011;3130;41.564;23.280;2022-07-12T01:50:30;5.83;;;3.23;;
6193;SDS011;3130;41.564;23.280;2022-07-12T01:52:57;3.83;;;3.23;;
6193;SDS011;3130;41.564;23.280;2022-07-12T01:55:24;3.80;;;3.47;;
6193;SDS011;3130;41.564;23.280;2022-07-12T01:57:53;3.77;;;3.17;;
6193;SDS011;3130;41.564;23.280;2022-07-12T02:00:20;4.57;;;4.13;;
6193;SDS011;3130;41.564;23.280;2022-07-12T02:02:47;4.03;;;3.03;;
6193;SDS011;3130;41.564;23.280;2022-07-12T02:05:15;5.73;;;3.27;;
6193;SDS011;3130;41.564;23.280;2022-07-12T02:07:42;3.43;;;2.80;;
6193;SDS011;3130;41.564;23.280;2022-07-12T02:10:10;3.60;;;3.30;;
6193;SDS011;3130;41.564;23.280;2022-07-12T02:12:37;5.33;;;3.80;;
6193;SDS011;3130;41.564;23.280;2022-07-12T02:15:06;3.37;;;3.00;;
6193;SDS011;3130;41.564;23.280;2022-07-12T02:17:34;5.40;;;3.53;;
6193;SDS011;3130;41.564;23.280;2022-07-12T02:20:02;4.57;;;3.83;;
6193;SDS011;3130;41.564;23.280;2022-07-12T02:22:30;7.17;;;3.77;;
6193;SDS011;3130;41.564;23.280;2022-07-12T02:24:57;5.03;;;3.67;;
6193;SDS011;3130;41.564;23.280;2022-07-12T02:27:24;7.50;;;3.43;;
6193;SDS011;3130;41.564;23.280;2022-07-12T02:29:52;3.87;;;3.37;;
6193;SDS011;3130;41.564;23.280;2022-07-12T02:32:20;3.83;;;3.47;;
6193;SDS011;3130;41.564;23.280;2022-07-12T02:34:47;4.20;;;3.80;;
6193;SDS011;3130;41.564;23.280;2022-07-12T02:37:14;6.83;;;3.70;;
6193;SDS011;3130;41.564;23.280;2022-07-12T02:39:42;4.00;;;3.60;;
6193;SDS011;3130;41.564;23.280;2022-07-12T02:42:09;3.60;;;3.30;;
6193;SDS011;3130;41.564;23.280;2022-07-12T02:44:36;3.77;;;3.47;;
6193;SDS011;3130;41.564;23.280;2022-07-12T02:47:03;4.67;;;3.87;;
6193;SDS011;3130;41.564;23.280;2022-07-12T02:49:32;5.93;;;3.33;;
6193;SDS011;3130;41.564;23.280;2022-07-12T02:51:59;4.17;;;3.87;;
6193;SDS011;3130;41.564;23.280;2022-07-12T02:54:26;6.50;;;3.87;;
6193;SDS011;3130;41.564;23.280;2022-07-12T02:56:53;3.53;;;3.23;;
6193;SDS011;3130;41.564;23.280;2022-07-12T02:59:21;4.27;;;3.27;;
6193;SDS011;3130;41.564;23.280;2022-07-12T03:01:48;6.33;;;3.93;;
6193;SDS011;3130;41.564;23.280;2022-07-12T03:04:15;4.63;;;4.07;;
6193;SDS011;3130;41.564;23.280;2022-07-12T03:06:43;3.70;;;3.40;;
6193;SDS011;3130;41.564;23.280;2022-07-12T03:09:10;6.07;;;3.17;;
6193;SDS011;3130;41.564;23.280;2022-07-12T03:11:38;3.47;;;3.03;;
6193;SDS011;3130;41.564;23.280;2022-07-12T03:14:05;4.23;;;3.83;;
6193;SDS011;3130;41.564;23.280;2022-07-12T03:16:32;6.00;;;4.40;;
6193;SDS011;3130;41.564;23.280;2022-07-12T03:18:59;5.37;;;3.30;;
6193;SDS011;3130;41.564;23.280;2022-07-12T03:21:26;6.57;;;4.10;;
6193;SDS011;3130;41.564;23.280;2022-07-12T03:23:55;7.43;;;3.80;;
6193;SDS011;3130;41.564;23.280;2022-07-12T03:26:22;3.30;;;3.07;;
6193;SDS011;3130;41.564;23.280;2022-07-12T03:28:50;4.33;;;2.87;;
6193;SDS011;3130;41.564;23.280;2022-07-12T03:31:17;4.70;;;4.20;;
6193;SDS011;3130;41.564;23.280;2022-07-12T03:33:44;5.43;;;3.53;;
6193;SDS011;3130;41.564;23.280;2022-07-12T03:36:11;4.20;;;3.27;;
6193;SDS011;3130;41.564;23.280;2022-07-12T03:38:38;6.97;;;3.97;;
6193;SDS011;3130;41.564;23.280;2022-07-12T03:41:09;3.90;;;3.47;;
6193;SDS011;3130;41.564;23.280;2022-07-12T03:43:37;3.67;;;3.37;;
6193;SDS011;3130;41.564;23.280;2022-07-12T03:46:04;6.87;;;4.00;;
6193;SDS011;3130;41.564;23.280;2022-07-12T03:48:31;8.43;;;3.93;;
6193;SDS011;3130;41.564;23.280;2022-07-12T03:50:58;4.80;;;4.33;;
6193;SDS011;3130;41.564;23.280;2022-07-12T03:53:25;4.77;;;3.83;;
6193;SDS011;3130;41.564;23.280;2022-07-12T03:55:52;4.73;;;3.60;;
6193;SDS011;3130;41.564;23.280;2022-07-12T03:58:21;5.30;;;3.80;;
6193;SDS011;3130;41.564;23.280;2022-07-12T04:00:48;6.33;;;4.50;;
6193;SDS011;3130;41.564;23.280;2022-07-12T04:03:15;5.23;;;3.60;;
6193;SDS011;3130;41.564;23.280;2022-07-12T04:05:42;5.33;;;4.77;;
6193;SDS011;3130;41.564;23.280;2022-07-12T04:08:10;4.67;;;4.20;;
6193;SDS011;3130;41.564;23.280;2022-07-12T04:10:37;5.00;;;4.50;;
6193;SDS011;3130;41.564;23.280;2022-07-12T04:13:04;4.47;;;4.07;;
6193;SDS011;3130;41.564;23.280;2022-07-12T04:15:33;5.97;;;3.90;;
6193;SDS011;3130;41.564;23.280;2022-07-12T04:18:00;5.30;;;4.07;;
6193;SDS011;3130;41.564;23.280;2022-07-12T04:20:27;4.53;;;3.60;;
6193;SDS011;3130;41.564;23.280;2022-07-12T04:22:55;6.17;;;5.00;;
6193;SDS011;3130;41.564;23.280;2022-07-12T04:25:22;7.77;;;3.60;;
6193;SDS011;3130;41.564;23.280;2022-07-12T04:27:50;5.07;;;4.20;;
6193;SDS011;3130;41.564;23.280;2022-07-12T04:30:20;9.80;;;5.13;;
6193;SDS011;3130;41.564;23.280;2022-07-12T04:32:49;5.33;;;4.40;;
6193;SDS011;3130;41.564;23.280;2022-07-12T04:35:16;5.17;;;4.23;;
6193;SDS011;3130;41.564;23.280;2022-07-12T04:37:43;5.57;;;4.00;;
6193;SDS011;3130;41.564;23.280;2022-07-12T04:40:11;5.10;;;3.90;;
6193;SDS011;3130;41.564;23.280;2022-07-12T04:42:39;5.60;;;5.10;;
6193;SDS011;3130;41.564;23.280;2022-07-12T04:45:06;4.43;;;3.87;;
6193;SDS011;3130;41.564;23.280;2022-07-12T04:47:35;4.60;;;4.10;;
6193;SDS011;3130;41.564;23.280;2022-07-12T04:50:04;4.17;;;3.77;;
6193;SDS011;3130;41.564;23.280;2022-07-12T04:52:32;5.30;;;4.27;;
6193;SDS011;3130;41.564;23.280;2022-07-12T04:55:00;8.27;;;4.20;;
6193;SDS011;3130;41.564;23.280;2022-07-12T04:57:27;4.60;;;3.73;;
6193;SDS011;3130;41.564;23.280;2022-07-12T04:59:54;4.10;;;3.60;;
6193;SDS011;3130;41.564;23.280;2022-07-12T05:02:21;6.27;;;4.83;;
6193;SDS011;3130;41.564;23.280;2022-07-12T05:04:48;6.70;;;4.03;;
6193;SDS011;3130;41.564;23.280;2022-07-12T05:07:17;4.27;;;3.97;;
6193;SDS011;3130;41.564;23.280;2022-07-12T05:09:44;5.93;;;3.60;;
6193;SDS011;3130;41.564;23.280;2022-07-12T05:12:11;4.73;;;3.80;;
6193;SDS011;3130;41.564;23.280;2022-07-12T05:14:38;5.03;;;3.90;;
6193;SDS011;3130;41.564;23.280;2022-07-12T05:17:06;5.83;;;4.77;;
6193;SDS011;3130;41.564;23.280;2022-07-12T05:19:33;4.73;;;4.23;;
6193;SDS011;3130;41.564;23.280;2022-07-12T05:22:00;4.13;;;3.80;;
6193;SDS011;3130;41.564;23.280;2022-07-12T05:24:29;5.17;;;4.03;;
6193;SDS011;3130;41.564;23.280;2022-07-12T05:26:56;3.70;;;3.40;;
6193;SDS011;3130;41.564;23.280;2022-07-12T05:29:23;5.63;;;4.03;;
6193;SDS011;3130;41.564;23.280;2022-07-12T05:31:50;4.33;;;3.93;;
6193;SDS011;3130;41.564;23.280;2022-07-12T05:34:21;6.23;;;4.53;;
6193;SDS011;3130;41.564;23.280;2022-07-12T05:36:49;5.53;;;3.27;;
6193;SDS011;3130;41.564;23.280;2022-07-12T05:39:16;7.93;;;3.83;;
6193;SDS011;3130;41.564;23.280;2022-07-12T05:41:45;9.80;;;3.77;;
6193;SDS011;3130;41.564;23.280;2022-07-12T05:44:12;3.70;;;3.27;;
6193;SDS011;3130;41.564;23.280;2022-07-12T05:46:40;3.43;;;2.60;;
6193;SDS011;3130;41.564;23.280;2022-07-12T05:49:08;4.53;;;3.43;;
6193;SDS011;3130;41.564;23.280;2022-07-12T05:51:35;4.97;;;3.70;;
6193;SDS011;3130;41.564;23.280;2022-07-12T05:54:19;5.83;;;3.07;;
6193;SDS011;3130;41.564;23.280;2022-07-12T05:56:48;6.17;;;4.47;;
6193;SDS011;3130;41.564;23.280;2022-07-12T05:59:16;4.03;;;3.33;;
6193;SDS011;3130;41.564;23.280;2022-07-12T06:01:43;4.00;;;3.37;;
6193;SDS011;3130;41.564;23.280;2022-07-12T06:04:10;4.27;;;3.73;;
6193;SDS011;3130;41.564;23.280;2022-07-12T06:06:38;4.80;;;3.30;;
6193;SDS011;3130;41.564;23.280;2022-07-12T06:09:05;4.03;;;2.90;;
6193;SDS011;3130;41.564;23.280;2022-07-12T06:11:32;4.97;;;3.30;;
6193;SDS011;3130;41.564;23.280;2022-07-12T06:14:01;3.57;;;2.97;;
6193;SDS011;3130;41.564;23.280;2022-07-12T06:16:28;4.40;;;3.53;;
6193;SDS011;3130;41.564;23.280;2022-07-12T06:18:55;4.97;;;3.30;;
6193;SDS011;3130;41.564;23.280;2022-07-12T06:21:22;8.47;;;3.17;;
6193;SDS011;3130;41.564;23.280;2022-07-12T06:23:49;3.17;;;2.93;;
6193;SDS011;3130;41.564;23.280;2022-07-12T06:26:17;5.10;;;3.00;;
6193;SDS011;3130;41.564;23.280;2022-07-12T06:28:44;4.73;;;3.80;;
6193;SDS011;3130;41.564;23.280;2022-07-12T06:31:13;3.57;;;3.03;;
6193;SDS011;3130;41.564;23.280;2022-07-12T06:33:40;4.47;;;3.20;;
6193;SDS011;3130;41.564;23.280;2022-07-12T06:36:07;4.30;;;2.50;;
6193;SDS011;3130;41.564;23.280;2022-07-12T06:38:35;3.20;;;2.70;;
6193;SDS011;3130;41.564;23.280;2022-07-12T06:41:02;6.43;;;2.90;;
6193;SDS011;3130;41.564;23.280;2022-07-12T06:43:29;7.13;;;2.87;;
6193;SDS011;3130;41.564;23.280;2022-07-12T06:45:56;3.17;;;2.30;;
6193;SDS011;3130;41.564;23.280;2022-07-12T06:48:24;3.53;;;2.80;;
6193;SDS011;3130;41.564;23.280;2022-07-12T06:50:52;4.10;;;2.57;;
6193;SDS011;3130;41.564;23.280;2022-07-12T06:53:19;3.37;;;2.97;;
6193;SDS011;3130;41.564;23.280;2022-07-12T06:55:46;2.90;;;2.27;;
6193;SDS011;3130;41.564;23.280;2022-07-12T06:58:13;6.53;;;2.83;;
6193;SDS011;3130;41.564;23.280;2022-07-12T07:00:41;4.20;;;2.47;;
6193;SDS011;3130;41.564;23.280;2022-07-12T07:03:08;2.50;;;2.30;;
6193;SDS011;3130;41.564;23.280;2022-07-12T07:05:37;5.67;;;2.83;;
6193;SDS011;3130;41.564;23.280;2022-07-12T07:08:04;2.83;;;2.20;;
6193;SDS011;3130;41.564;23.280;2022-07-12T07:10:32;3.63;;;2.33;;
6193;SDS011;3130;41.564;23.280;2022-07-12T07:12:59;4.37;;;2.43;;
6193;SDS011;3130;41.564;23.280;2022-07-12T07:15:26;4.63;;;2.40;;
6193;SDS011;3130;41.564;23.280;2022-07-12T07:17:54;2.90;;;2.37;;
6193;SDS011;3130;41.564;23.280;2022-07-12T07:20:22;2.47;;;1.93;;
6193;SDS011;3130;41.564;23.280;2022-07-12T07:22:50;5.67;;;2.47;;
6193;SDS011;3130;41.564;23.280;2022-07-12T07:25:18;4.63;;;2.97;;
6193;SDS011;3130;41.564;23.280;2022-07-12T07:27:45;2.87;;;1.70;;
6193;SDS011;3130;41.564;23.280;2022-07-12T07:30:12;3.13;;;2.43;;
6193;SDS011;3130;41.564;23.280;2022-07-12T07:32:57;5.33;;;2.37;;
6193;SDS011;3130;41.564;23.280;2022-07-12T07:35:24;5.37;;;2.93;;
6193;SDS011;3130;41.564;23.280;2022-07-12T07:37:52;5.07;;;3.10;;
6193;SDS011;3130;41.564;23.280;2022-07-12T07:40:20;3.00;;;2.13;;
6193;SDS011;3130;41.564;23.280;2022-07-12T07:42:47;3.00;;;2.30;;
6193;SDS011;3130;41.564;23.280;2022-07-12T07:45:14;4.03;;;2.13;;
6193;SDS011;3130;41.564;23.280;2022-07-12T07:47:44;2.87;;;2.33;;
6193;SDS011;3130;41.564;23.280;2022-07-12T07:50:13;3.03;;;1.97;;
6193;SDS011;3130;41.564;23.280;2022-07-12T07:52:41;3.40;;;1.90;;
6193;SDS011;3130;41.564;23.280;2022-07-12T07:55:09;3.03;;;1.73;;
6193;SDS011;3130;41.564;23.280;2022-07-12T07:57:36;4.07;;;2.23;;
6193;SDS011;3130;41.564;23.280;2022-07-12T08:00:04;2.73;;;2.20;;
6193;SDS011;3130;41.564;23.280;2022-07-12T08:02:31;5.80;;;2.70;;
6193;SDS011;3130;41.564;23.280;2022-07-12T08:04:59;2.57;;;2.03;;
6193;SDS011;3130;41.564;23.280;2022-07-12T08:07:26;4.23;;;2.37;;
6193;SDS011;3130;41.564;23.280;2022-07-12T08:09:53;4.40;;;2.43;;
6193;SDS011;3130;41.564;23.280;2022-07-12T08:12:22;6.70;;;3.43;;
6193;SDS011;3130;41.564;23.280;2022-07-12T08:14:49;5.73;;;3.13;;
6193;SDS011;3130;41.564;23.280;2022-07-12T08:17:16;3.87;;;2.50;;
6193;SDS011;3130;41.564;23.280;2022-07-12T08:19:43;2.30;;;1.97;;
6193;SDS011;3130;41.564;23.280;2022-07-12T08:22:10;3.40;;;2.70;;
6193;SDS011;3130;41.564;23.280;2022-07-12T08:24:37;6.43;;;2.00;;
6193;SDS011;3130;41.564;23.280;2022-07-12T08:27:04;3.73;;;2.03;;
6193;SDS011;3130;41.564;23.280;2022-07-12T08:29:33;3.13;;;1.97;;
6193;SDS011;3130;41.564;23.280;2022-07-12T08:32:00;2.23;;;1.70;;
6193;SDS011;3130;41.564;23.280;2022-07-12T08:34:27;3.40;;;2.17;;
6193;SDS011;3130;41.564;23.280;2022-07-12T08:36:54;2.83;;;1.90;;
6193;SDS011;3130;41.564;23.280;2022-07-12T08:39:22;1.70;;;1.60;;
6193;SDS011;3130;41.564;23.280;2022-07-12T08:41:49;2.23;;;1.73;;
6193;SDS011;3130;41.564;23.280;2022-07-12T08:44:16;2.40;;;1.77;;
6193;SDS011;3130;41.564;23.280;2022-07-12T08:46:45;3.47;;;2.30;;
6193;SDS011;3130;41.564;23.280;2022-07-12T08:49:13;3.17;;;2.70;;
6193;SDS011;3130;41.564;23.280;2022-07-12T08:51:40;2.80;;;2.07;;
6193;SDS011;3130;41.564;23.280;2022-07-12T08:54:08;2.80;;;1.53;;
6193;SDS011;3130;41.564;23.280;2022-07-12T08:56:37;3.47;;;1.93;;
6193;SDS011;3130;41.564;23.280;2022-07-12T08:59:08;4.10;;;1.60;;
6193;SDS011;3130;41.564;23.280;2022-07-12T09:01:40;6.40;;;2.90;;
6193;SDS011;3130;41.564;23.280;2022-07-12T09:04:10;3.60;;;2.10;;
6193;SDS011;3130;41.564;23.280;2022-07-12T09:06:38;4.27;;;1.87;;
6193;SDS011;3130;41.564;23.280;2022-07-12T09:09:05;2.53;;;1.90;;
6193;SDS011;3130;41.564;23.280;2022-07-12T10:03:13;4.53;;;1.80;;
6193;SDS011;3130;41.564;23.280;2022-07-12T10:05:41;3.08;;;2.10;;
6193;SDS011;3130;41.564;23.280;2022-07-12T10:08:09;2.53;;;1.67;;
6193;SDS011;3130;41.564;23.280;2022-07-12T10:10:36;6.07;;;1.85;;
6193;SDS011;3130;41.564;23.280;2022-07-12T10:13:03;3.40;;;2.10;;
6193;SDS011;3130;41.564;23.280;2022-07-12T10:15:31;2.33;;;1.90;;
6193;SDS011;3130;41.564;23.280;2022-07-12T10:18:00;4.25;;;2.08;;
6193;SDS011;3130;41.564;23.280;2022-07-12T10:20:28;2.92;;;1.55;;
6193;SDS011;3130;41.564;23.280;2022-07-12T10:22:58;5.65;;;2.45;;
6193;SDS011;3130;41.564;23.280;2022-07-12T10:26:23;1.83;;;1.73;;
6193;SDS011;3130;41.564;23.280;2022-07-12T10:40:43;2.60;;;2.13;;
6193;SDS011;3130;41.564;23.280;2022-07-12T10:43:15;3.50;;;1.98;;
6193;SDS011;3130;41.564;23.280;2022-07-12T10:45:46;2.60;;;1.70;;
6193;SDS011;3130;41.564;23.280;2022-07-12T10:48:23;2.92;;;1.90;;
6193;SDS011;3130;41.564;23.280;2022-07-12T10:50:57;3.85;;;1.90;;
6193;SDS011;3130;41.564;23.280;2022-07-12T10:53:25;1.65;;;1.55;;
6193;SDS011;3130;41.564;23.280;2022-07-12T10:56:10;3.35;;;1.63;;
6193;SDS011;3130;41.564;23.280;2022-07-12T10:58:43;3.20;;;1.98;;
6193;SDS011;3130;41.564;23.280;2022-07-12T11:01:12;4.00;;;1.67;;
6193;SDS011;3130;41.564;23.280;2022-07-12T11:03:40;3.58;;;1.85;;
6193;SDS011;3130;41.564;23.280;2022-07-12T11:06:10;4.47;;;1.80;;
6193;SDS011;3130;41.564;23.280;2022-07-12T11:08:51;2.15;;;1.95;;
6193;SDS011;3130;41.564;23.280;2022-07-12T11:11:22;2.58;;;1.83;;
6193;SDS011;3130;41.564;23.280;2022-07-12T11:13:50;2.67;;;1.70;;
6193;SDS011;3130;41.564;23.280;2022-07-12T11:16:18;1.67;;;1.55;;
6193;SDS011;3130;41.564;23.280;2022-07-12T11:18:45;3.67;;;2.03;;
6193;SDS011;3130;41.564;23.280;2022-07-12T11:21:14;6.72;;;4.90;;
6193;SDS011;3130;41.564;23.280;2022-07-12T11:23:41;5.45;;;2.40;;
6193;SDS011;3130;41.564;23.280;2022-07-12T11:26:09;4.95;;;2.67;;
6193;SDS011;3130;41.564;23.280;2022-07-12T11:28:40;3.42;;;1.90;;
6193;SDS011;3130;41.564;23.280;2022-07-12T11:31:10;2.60;;;2.20;;
6193;SDS011;3130;41.564;23.280;2022-07-12T11:33:39;2.63;;;1.45;;
6193;SDS011;3130;41.564;23.280;2022-07-12T11:36:09;3.40;;;1.80;;
6193;SDS011;3130;41.564;23.280;2022-07-12T11:38:37;3.17;;;1.67;;
6193;SDS011;3130;41.564;23.280;2022-07-12T11:41:06;2.80;;;1.70;;
6193;SDS011;3130;41.564;23.280;2022-07-12T11:43:35;3.03;;;1.85;;
6193;SDS011;3130;41.564;23.280;2022-07-12T11:46:05;4.95;;;1.45;;
6193;SDS011;3130;41.564;23.280;2022-07-12T11:48:33;3.75;;;2.28;;
6193;SDS011;3130;41.564;23.280;2022-07-12T11:51:03;2.60;;;1.55;;
6193;SDS011;3130;41.564;23.280;2022-07-12T11:53:31;3.35;;;2.00;;
6193;SDS011;3130;41.564;23.280;2022-07-12T11:56:00;1.67;;;1.58;;
6193;SDS011;3130;41.564;23.280;2022-07-12T11:58:28;3.08;;;1.48;;
6193;SDS011;3130;41.564;23.280;2022-07-12T12:00:57;2.65;;;1.27;;
6193;SDS011;3130;41.564;23.280;2022-07-12T12:03:27;3.38;;;1.80;;
6193;SDS011;3130;41.564;23.280;2022-07-12T12:05:55;2.03;;;1.65;;
6193;SDS011;3130;41.564;23.280;2022-07-12T12:08:23;2.88;;;1.60;;
6193;SDS011;3130;41.564;23.280;2022-07-12T12:10:55;2.33;;;1.65;;
6193;SDS011;3130;41.564;23.280;2022-07-12T12:13:23;3.05;;;1.30;;
6193;SDS011;3130;41.564;23.280;2022-07-12T12:15:51;2.42;;;1.80;;
6193;SDS011;3130;41.564;23.280;2022-07-12T12:18:32;2.15;;;1.77;;
6193;SDS011;3130;41.564;23.280;2022-07-12T12:21:02;2.58;;;1.45;;
6193;SDS011;3130;41.564;23.280;2022-07-12T12:23:31;3.42;;;1.70;;
6193;SDS011;3130;41.564;23.280;2022-07-12T12:26:11;7.28;;;2.65;;
6193;SDS011;3130;41.564;23.280;2022-07-12T12:28:41;5.72;;;2.03;;
6193;SDS011;3130;41.564;23.280;2022-07-12T12:31:08;5.75;;;1.90;;
6193;SDS011;3130;41.564;23.280;2022-07-12T12:33:39;3.88;;;1.30;;
6193;SDS011;3130;41.564;23.280;2022-07-12T12:36:11;2.95;;;1.70;;
6193;SDS011;3130;41.564;23.280;2022-07-12T12:38:42;3.63;;;1.40;;
6193;SDS011;3130;41.564;23.280;2022-07-12T12:41:10;2.10;;;1.90;;
6193;SDS011;3130;41.564;23.280;2022-07-12T12:43:38;2.67;;;1.50;;
6193;SDS011;3130;41.564;23.280;2022-07-12T12:46:06;1.70;;;1.60;;
6193;SDS011;3130;41.564;23.280;2022-07-12T12:48:33;5.32;;;1.80;;
6193;SDS011;3130;41.564;23.280;2022-07-12T12:51:04;2.03;;;1.70;;
6193;SDS011;3130;41.564;23.280;2022-07-12T12:53:33;5.68;;;2.13;;
6193;SDS011;3130;41.564;23.280;2022-07-12T12:56:04;5.97;;;2.30;;
6193;SDS011;3130;41.564;23.280;2022-07-12T12:58:32;2.33;;;1.70;;
6193;SDS011;3130;41.564;23.280;2022-07-12T13:00:59;2.20;;;1.60;;
6193;SDS011;3130;41.564;23.280;2022-07-12T13:03:27;3.95;;;1.85;;
6193;SDS011;3130;41.564;23.280;2022-07-12T13:05:54;2.15;;;1.48;;
6193;SDS011;3130;41.564;23.280;2022-07-12T13:08:24;4.03;;;1.80;;
6193;SDS011;3130;41.564;23.280;2022-07-12T13:10:52;2.17;;;1.58;;
6193;SDS011;3130;41.564;23.280;2022-07-12T13:13:34;2.58;;;1.67;;
6193;SDS011;3130;41.564;23.280;2022-07-12T13:16:06;2.80;;;1.40;;
6193;SDS011;3130;41.564;23.280;2022-07-12T13:18:33;1.63;;;1.50;;
6193;SDS011;3130;41.564;23.280;2022-07-12T13:21:00;3.28;;;1.90;;
6193;SDS011;3130;41.564;23.280;2022-07-12T13:23:29;1.80;;;1.65;;
6193;SDS011;3130;41.564;23.280;2022-07-12T13:25:56;2.65;;;1.63;;
6193;SDS011;3130;41.564;23.280;2022-07-12T13:28:23;2.15;;;1.77;;
6193;SDS011;3130;41.564;23.280;2022-07-12T13:30:51;3.70;;;1.85;;
6193;SDS011;3130;41.564;23.280;2022-07-12T13:33:20;1.48;;;1.33;;
6193;SDS011;3130;41.564;23.280;2022-07-12T13:35:48;1.65;;;1.48;;
6193;SDS011;3130;41.564;23.280;2022-07-12T13:38:16;1.60;;;1.50;;
6193;SDS011;3130;41.564;23.280;2022-07-12T13:40:45;2.97;;;1.50;;
6193;SDS011;3130;41.564;23.280;2022-07-12T13:43:12;3.47;;;1.70;;
6193;SDS011;3130;41.564;23.280;2022-07-12T13:45:39;2.65;;;1.52;;
6193;SDS011;3130;41.564;23.280;2022-07-12T13:48:09;5.35;;;2.35;;
6193;SDS011;3130;41.564;23.280;2022-07-12T13:50:37;3.88;;;2.15;;
6193;SDS011;3130;41.564;23.280;2022-07-12T13:53:04;5.75;;;1.70;;
6193;SDS011;3130;41.564;23.280;2022-07-12T13:55:32;5.70;;;2.85;;
6193;SDS011;3130;41.564;23.280;2022-07-12T13:58:01;4.47;;;2.55;;
6193;SDS011;3130;41.564;23.280;2022-07-12T14:00:29;1.75;;;1.27;;
6193;SDS011;3130;41.564;23.280;2022-07-12T14:02:57;2.65;;;1.98;;
6193;SDS011;3130;41.564;23.280;2022-07-12T14:05:24;2.95;;;1.75;;
6193;SDS011;3130;41.564;23.280;2022-07-12T14:07:52;2.92;;;1.85;;
6193;SDS011;3130;41.564;23.280;2022-07-12T14:10:19;4.13;;;1.50;;
6193;SDS011;3130;41.564;23.280;2022-07-12T14:12:47;1.35;;;1.25;;
6193;SDS011;3130;41.564;23.280;2022-07-12T14:15:16;1.73;;;1.40;;
6193;SDS011;3130;41.564;23.280;2022-07-12T14:18:01;3.45;;;2.88;;
6193;SDS011;3130;41.564;23.280;2022-07-12T14:20:31;1.52;;;1.42;;
6193;SDS011;3130;41.564;23.280;2022-07-12T14:22:58;2.35;;;1.92;;
6193;SDS011;3130;41.564;23.280;2022-07-12T14:25:26;1.40;;;1.30;;
6193;SDS011;3130;41.564;23.280;2022-07-12T14:27:54;2.28;;;1.90;;
6193;SDS011;3130;41.564;23.280;2022-07-12T14:30:26;2.75;;;1.08;;
6193;SDS011;3130;41.564;23.280;2022-07-12T14:32:53;2.17;;;1.52;;
6193;SDS011;3130;41.564;23.280;2022-07-12T14:35:20;1.80;;;1.42;;
6193;SDS011;3130;41.564;23.280;2022-07-12T14:37:47;1.30;;;1.20;;
6193;SDS011;3130;41.564;23.280;2022-07-12T14:40:15;1.55;;;1.45;;
6193;SDS011;3130;41.564;23.280;2022-07-12T14:42:42;2.08;;;1.48;;
6193;SDS011;3130;41.564;23.280;2022-07-12T14:45:12;4.93;;;2.00;;
6193;SDS011;3130;41.564;23.280;2022-07-12T14:47:40;2.38;;;2.10;;
6193;SDS011;3130;41.564;23.280;2022-07-12T14:50:08;4.65;;;1.83;;
6193;SDS011;3130;41.564;23.280;2022-07-12T14:52:36;2.55;;;1.83;;
6193;SDS011;3130;41.564;23.280;2022-07-12T14:55:04;3.58;;;1.17;;
6193;SDS011;3130;41.564;23.280;2022-07-12T14:57:36;2.90;;;1.95;;
6193;SDS011;3130;41.564;23.280;2022-07-12T15:00:07;2.03;;;1.83;;
6193;SDS011;3130;41.564;23.280;2022-07-12T15:02:35;3.30;;;1.40;;
6193;SDS011;3130;41.564;23.280;2022-07-12T15:05:05;2.80;;;1.77;;
6193;SDS011;3130;41.564;23.280;2022-07-12T15:07:33;2.08;;;1.48;;
6193;SDS011;3130;41.564;23.280;2022-07-12T15:10:00;1.83;;;1.60;;
6193;SDS011;3130;41.564;23.280;2022-07-12T15:12:28;1.98;;;1.40;;
6193;SDS011;3130;41.564;23.280;2022-07-12T15:14:56;2.97;;;1.67;;
6193;SDS011;3130;41.564;23.280;2022-07-12T15:17:24;2.15;;;1.73;;
6193;SDS011;3130;41.564;23.280;2022-07-12T15:19:51;4.90;;;2.00;;
6193;SDS011;3130;41.564;23.280;2022-07-12T15:22:20;2.90;;;2.00;;
6193;SDS011;3130;41.564;23.280;2022-07-12T15:24:47;1.52;;;1.42;;
6193;SDS011;3130;41.564;23.280;2022-07-12T15:27:18;2.47;;;1.45;;
6193;SDS011;3130;41.564;23.280;2022-07-12T15:29:50;3.08;;;1.63;;
6193;SDS011;3130;41.564;23.280;2022-07-12T15:32:17;4.07;;;1.80;;
6193;SDS011;3130;41.564;23.280;2022-07-12T15:34:45;1.52;;;1.40;;
6193;SDS011;3130;41.564;23.280;2022-07-12T15:37:12;4.43;;;2.92;;
6193;SDS011;3130;41.564;23.280;2022-07-12T15:39:41;15.65;;;10.05;;
6193;SDS011;3130;41.564;23.280;2022-07-12T15:42:08;2.70;;;1.50;;
6193;SDS011;3130;41.564;23.280;2022-07-12T15:44:36;5.85;;;2.33;;
6193;SDS011;3130;41.564;23.280;2022-07-12T15:47:03;3.00;;;1.40;;
6193;SDS011;3130;41.564;23.280;2022-07-12T15:49:31;2.35;;;1.60;;
6193;SDS011;3130;41.564;23.280;2022-07-12T15:51:58;3.17;;;2.00;;
6193;SDS011;3130;41.564;23.280;2022-07-12T15:54:44;3.72;;;1.98;;
6193;SDS011;3130;41.564;23.280;2022-07-12T15:57:11;3.38;;;1.80;;
6193;SDS011;3130;41.564;23.280;2022-07-12T15:59:43;2.80;;;1.80;;
6193;SDS011;3130;41.564;23.280;2022-07-12T16:02:10;2.80;;;1.50;;
6193;SDS011;3130;41.564;23.280;2022-07-12T16:04:37;1.90;;;1.75;;
6193;SDS011;3130;41.564;23.280;2022-07-12T16:07:05;6.78;;;1.80;;
6193;SDS011;3130;41.564;23.280;2022-07-12T16:09:32;6.25;;;1.67;;
6193;SDS011;3130;41.564;23.280;2022-07-12T16:12:01;1.30;;;1.20;;